createdAt,value
2022-09-26T14:13:38.117Z,59.32
2022-09-26T14:16:29.390Z,58.75
2022-09-26T14:19:32.709Z,58.08
2022-09-26T14:22:37.537Z,56.89
2022-09-26T14:25:50.426Z,57.60
2022-09-26T14:28:40.353Z,59.77
2022-09-26T14:31:28.300Z,61.89
2022-09-26T14:34:26.295Z,63.35
2022-09-26T14:37:41.611Z,64.35
2022-09-26T14:40:35.193Z,64.88
2022-09-26T14:43:28.231Z,65.09
2022-09-26T14:46:25.286Z,65.45
2022-09-26T14:49:32.413Z,65.76
2022-09-26T14:52:28.286Z,66.14
2022-09-26T14:55:17.162Z,66.37
2022-09-26T14:58:48.099Z,66.41
2022-09-26T15:01:39.237Z,66.59
2022-09-26T15:04:33.133Z,66.82
2022-09-26T15:07:24.605Z,66.85
2022-09-26T15:10:14.041Z,67.12
2022-09-26T15:13:28.811Z,67.29
2022-09-26T15:16:37.706Z,67.49
2022-09-26T15:19:36.878Z,67.69
2022-09-26T15:22:27.773Z,67.83
2022-09-26T15:25:31.251Z,68.09
2022-09-26T15:28:20.001Z,68.23
2022-09-26T15:31:38.516Z,68.31
2022-09-26T15:34:42.883Z,68.88
2022-09-26T15:37:36.943Z,68.56
2022-09-26T15:40:32.377Z,68.95
2022-09-26T15:43:20.911Z,69.10
2022-09-26T15:46:27.372Z,69.12
2022-09-26T15:49:23.122Z,69.08
2022-09-26T15:52:11.723Z,68.99
2022-09-26T15:55:00.360Z,69.19
2022-09-26T15:57:53.165Z,69.08
2022-09-26T16:00:51.259Z,69.20
2022-09-26T16:04:01.946Z,69.11
2022-09-26T16:06:57.290Z,69.39
2022-09-26T16:09:48.834Z,69.32
2022-09-26T16:12:42.648Z,69.19
2022-09-26T16:15:31.898Z,69.08
2022-09-26T16:18:52.992Z,69.24
2022-09-26T16:21:41.847Z,69.32
2022-09-26T16:24:34.936Z,69.27
2022-09-26T16:27:34.279Z,69.31
2022-09-26T16:30:28.801Z,69.51
2022-09-26T16:36:25.125Z,69.77
2022-09-26T16:39:30.483Z,69.64
2022-09-26T16:42:21.690Z,69.89
2022-09-26T16:45:15.154Z,69.92
2022-09-26T16:48:04.309Z,70.22
2022-09-26T16:51:15.961Z,70.53
2022-09-26T16:54:21.920Z,70.72
2022-09-26T16:57:24.470Z,70.75
2022-09-26T17:01:01.963Z,70.91
2022-09-26T17:04:24.855Z,70.78
2022-09-26T17:10:26.877Z,70.96
2022-09-26T17:13:22.266Z,70.65
2022-09-26T17:16:11.237Z,70.93
2022-09-26T17:19:00.787Z,70.90
2022-09-26T17:21:50.551Z,70.95
2022-09-26T17:24:39.098Z,71.16
2022-09-26T17:27:34.557Z,71.37
2022-09-26T17:30:23.236Z,71.09
2022-09-26T17:33:12.952Z,71.27
2022-09-26T17:36:01.507Z,71.35
2022-09-26T17:38:53.397Z,71.25
2022-09-26T17:41:42.701Z,71.37
2022-09-26T17:44:34.259Z,71.42
2022-09-26T17:47:24.637Z,71.29
2022-09-26T17:50:30.675Z,71.39
2022-09-26T17:53:21.605Z,71.63
2022-09-26T17:56:11.355Z,71.89
2022-09-26T17:59:00.530Z,71.87
2022-09-26T18:01:53.314Z,71.89
2022-09-26T18:04:42.653Z,71.77
2022-09-26T18:07:38.977Z,71.85
2022-09-26T18:10:34.671Z,72.05
2022-09-26T18:13:28.930Z,72.16
2022-09-26T18:16:18.980Z,72.26
2022-09-26T18:19:09.581Z,72.52
2022-09-26T18:21:59.578Z,72.51
2022-09-26T18:24:51.773Z,72.56
2022-09-26T18:27:41.213Z,72.67
2022-09-26T18:30:29.768Z,72.65
2022-09-26T18:33:19.886Z,72.82
2022-09-26T18:36:11.724Z,72.93
2022-09-26T18:39:02.257Z,72.94
2022-09-26T18:42:13.829Z,72.98
2022-09-26T18:45:11.014Z,73.00
2022-09-26T18:48:05.860Z,72.90
2022-09-26T18:51:01.689Z,72.84
2022-09-26T18:53:59.604Z,72.72
2022-09-26T18:57:07.711Z,72.92
2022-09-26T18:59:56.901Z,73.22
2022-09-26T19:02:45.705Z,73.25
2022-09-26T19:05:33.849Z,73.42
2022-09-26T19:08:35.604Z,73.23
2022-09-26T19:11:27.090Z,73.12
2022-09-26T19:14:25.361Z,73.57
2022-09-26T19:17:13.848Z,73.55
2022-09-26T19:20:02.347Z,73.61
2022-09-26T19:22:55.869Z,73.71
2022-09-26T19:25:44.118Z,73.66
2022-09-26T19:28:36.451Z,73.84
2022-09-26T19:31:25.231Z,73.77
2022-09-26T19:34:18.680Z,73.73
2022-09-26T19:37:10.181Z,73.65
2022-09-26T19:39:58.964Z,73.68
2022-09-26T19:42:47.211Z,73.85
2022-09-26T19:45:35.804Z,73.86
2022-09-26T19:48:25.167Z,73.78
2022-09-26T19:51:15.419Z,73.97
2022-09-26T19:54:06.345Z,73.99
2022-09-26T19:56:54.683Z,74.25
2022-09-26T19:59:42.902Z,73.99
2022-09-26T20:02:32.756Z,73.90
2022-09-26T20:05:26.128Z,74.14
2022-09-26T20:08:18.451Z,74.00
2022-09-26T20:11:06.918Z,73.80
2022-09-26T20:14:30.440Z,73.77
2022-09-26T20:17:26.060Z,73.66
2022-09-26T20:20:24.453Z,73.55
2022-09-26T20:23:22.115Z,73.57
2022-09-26T20:26:10.052Z,73.87
2022-09-26T20:28:58.204Z,73.76
2022-09-26T20:31:47.512Z,73.90
2022-09-26T20:34:35.691Z,74.12
2022-09-26T20:37:23.871Z,73.67
2022-09-26T20:40:25.141Z,73.88
2022-09-26T20:43:18.552Z,73.88
2022-09-26T20:46:09.014Z,73.94
2022-09-26T20:48:57.757Z,73.85
2022-09-26T20:51:46.841Z,74.00
2022-09-26T20:54:34.886Z,74.22
2022-09-26T20:57:24.166Z,74.27
2022-09-26T21:00:17.910Z,74.37
2022-09-26T21:03:07.380Z,74.25
2022-09-26T21:05:55.275Z,74.51
2022-09-26T21:08:44.282Z,74.35
2022-09-26T21:11:32.304Z,74.28
2022-09-26T21:14:20.299Z,74.46
2022-09-26T21:17:23.843Z,74.52
2022-09-26T21:20:24.018Z,74.53
2022-09-26T21:23:47.809Z,74.36
2022-09-26T21:26:36.344Z,74.39
2022-09-26T21:29:24.554Z,74.65
2022-09-26T21:32:18.030Z,74.81
2022-09-26T21:35:06.445Z,74.87
2022-09-26T21:37:56.454Z,74.72
2022-09-26T21:40:47.435Z,74.55
2022-09-26T21:43:43.076Z,74.73
2022-09-26T21:46:31.033Z,75.09
2022-09-26T21:49:19.133Z,75.22
2022-09-26T21:52:20.147Z,75.28
2022-09-26T21:55:12.270Z,75.44
2022-09-26T21:58:05.813Z,75.40
2022-09-26T22:00:54.146Z,75.47
2022-09-26T22:03:42.354Z,75.58
2022-09-26T22:06:30.527Z,75.62
2022-09-26T22:09:18.568Z,75.44
2022-09-26T22:12:07.000Z,75.50
2022-09-26T22:14:54.807Z,75.48
2022-09-26T22:17:43.017Z,75.64
2022-09-26T22:20:31.386Z,75.57
2022-09-26T22:23:19.255Z,75.65
2022-09-26T22:26:07.897Z,75.72
2022-09-26T22:28:56.303Z,75.91
2022-09-26T22:31:44.459Z,75.93
2022-09-26T22:34:32.810Z,75.97
2022-09-26T22:37:20.977Z,75.52
2022-09-26T22:40:09.074Z,75.92
2022-09-26T22:42:58.706Z,75.68
2022-09-26T22:45:47.007Z,75.73
2022-09-26T22:48:46.481Z,75.84
2022-09-26T22:51:34.923Z,75.74
2022-09-26T22:54:22.686Z,75.79
2022-09-26T22:57:11.935Z,76.04
2022-09-26T23:00:01.943Z,75.83
2022-09-26T23:02:52.760Z,75.57
2022-09-26T23:05:41.243Z,75.56
2022-09-26T23:08:29.437Z,75.67
2022-09-26T23:11:18.588Z,75.96
2022-09-26T23:14:07.103Z,75.85
2022-09-26T23:16:55.304Z,75.72
2022-09-26T23:19:44.036Z,75.94
2022-09-26T23:22:33.177Z,75.81
2022-09-26T23:25:20.950Z,75.88
2022-09-26T23:28:09.289Z,75.88
2022-09-26T23:31:08.116Z,75.93
2022-09-26T23:33:57.562Z,75.79
2022-09-26T23:36:45.999Z,75.89
2022-09-26T23:39:34.034Z,75.98
2022-09-26T23:42:22.531Z,75.94
2022-09-26T23:45:10.924Z,76.10
2022-09-26T23:47:59.437Z,76.46
2022-09-26T23:50:47.522Z,76.05
2022-09-26T23:53:35.976Z,76.19
2022-09-26T23:56:24.474Z,76.15
2022-09-26T23:59:12.521Z,76.15
